Terminal Aerodrome Forecast
Issued by NWS

Home | Current Version | Previous Version | Text Only | Print | Product List | Glossary On
Versions: 1 2 3 4 5 6 7 8 9 10 11 12 13 14 15 16 17 18 19 20 21 22 23 24 25
000
FTUS46 KSGX 250500
TAFSAN
TAF
KSAN 250520Z 2506/2612 VRB03KT P6SM FEW008
     FM250900 17004KT 2SM BR VCFG BKN005
     FM251400 18005KT 3SM BR BKN007
     FM251700 23006KT P6SM SCT008
     FM252000 29010KT P6SM FEW012
     FM260100 VRB04KT P6SM FEW010
     FM260500 VRB03KT P6SM BKN012=

USA.gov is the U.S. government's official web portal to all federal, state and local government web resources and services.